Time;durP1;ratioP1;P1;durP2;ratioP2;P2;SDS_P1;SDS_P2;PMS_P1;PMS_P2;Temp;Humidity;BMP_temperature;BMP_pressure;BME280_temperature;BME280_humidity;BME280_pressure;Samples;Min_cycle;Max_cycle;Signal;HPM_P1;HPM_P2
2021/04/24 00:01:49;;;;;;;19.60;5.03;;;;;;;3.47;82.10;102248.63;5073143;28;20051;-73
2021/04/24 00:04:14;;;;;;;15.53;4.87;;;;;;;3.50;82.07;102249.28;5073198;28;20039;-73
2021/04/24 00:06:40;;;;;;;10.73;4.97;;;;;;;3.51;82.45;102251.00;5073426;28;20360;-72
2021/04/24 00:09:07;;;;;;;16.10;4.83;;;;;;;3.52;82.25;102254.50;5073062;28;20031;-73
2021/04/24 00:11:32;;;;;;;12.13;4.00;;;;;;;3.50;82.42;102245.81;5090980;28;20282;-73
2021/04/24 00:13:58;;;;;;;10.75;4.40;;;;;;;3.52;82.22;102242.16;5090892;28;20242;-73
2021/04/24 00:16:23;;;;;;;14.83;4.87;;;;;;;3.51;82.25;102244.84;5090647;28;20044;-73
2021/04/24 00:18:48;;;;;;;11.67;5.17;;;;;;;3.51;82.43;102240.44;5072987;28;20031;-73
2021/04/24 00:21:15;;;;;;;11.07;4.67;;;;;;;3.51;82.28;102229.88;5091058;28;20364;-73
2021/04/24 00:23:40;;;;;;;16.52;5.20;;;;;;;3.49;82.42;102229.13;5090965;28;20043;-73
2021/04/24 00:26:06;;;;;;;13.65;4.20;;;;;;;3.49;82.70;102221.19;5090865;28;20028;-74
2021/04/24 00:28:31;;;;;;;19.47;5.30;;;;;;;3.47;82.32;102243.34;5072856;28;20514;-73
2021/04/24 00:30:56;;;;;;;16.50;4.43;;;;;;;3.50;82.19;102229.97;5090635;28;20126;-73
2021/04/24 00:33:22;;;;;;;16.13;4.60;;;;;;;3.41;82.85;102233.09;5090899;28;20028;-73
2021/04/24 00:35:47;;;;;;;10.43;4.30;;;;;;;3.44;82.54;102232.91;5090817;28;20071;-72
2021/04/24 00:38:12;;;;;;;21.83;5.63;;;;;;;3.40;82.77;102213.75;5090587;28;20028;-73
2021/04/24 00:40:39;;;;;;;16.43;5.13;;;;;;;3.35;83.04;102227.19;5090809;28;20509;-73
2021/04/24 00:43:04;;;;;;;23.17;4.88;;;;;;;3.34;83.01;102225.47;5072977;28;20132;-73
2021/04/24 00:45:30;;;;;;;12.87;5.40;;;;;;;3.39;83.23;102230.50;5090558;28;20107;-73
2021/04/24 00:47:57;;;;;;;20.63;6.03;;;;;;;3.37;83.24;102225.31;5091955;28;20051;-73
2021/04/24 00:50:28;;;;;;;17.88;6.78;;;;;;;3.34;83.45;102216.69;5076676;28;20105;-73
2021/04/24 00:52:53;;;;;;;14.48;5.90;;;;;;;3.36;83.32;102213.03;5094470;28;20020;-74
2021/04/24 00:55:18;;;;;;;18.50;5.43;;;;;;;3.29;83.25;102214.28;5094380;28;20405;-73
2021/04/24 00:57:45;;;;;;;14.77;4.97;;;;;;;3.23;83.60;102213.75;5094150;28;20039;-72
2021/04/24 01:00:13;;;;;;;17.27;4.72;;;;;;;3.10;83.80;102218.81;5059566;28;20028;-72
2021/04/24 01:02:39;;;;;;;13.43;4.57;;;;;;;3.07;84.14;102213.72;5076194;28;20197;-73
2021/04/24 01:05:11;;;;;;;12.32;4.57;;;;;;;3.09;84.45;102225.00;5094219;28;20463;-72
2021/04/24 01:07:37;;;;;;;15.48;5.75;;;;;;;3.09;84.15;102222.38;5076052;28;20445;-72
2021/04/24 01:10:08;;;;;;;15.52;5.53;;;;;;;3.03;84.02;102220.06;5076191;28;20046;-72
2021/04/24 01:12:33;;;;;;;13.25;3.85;;;;;;;2.95;84.42;102220.47;5076225;28;20064;-72
2021/04/24 01:14:59;;;;;;;15.40;5.47;;;;;;;3.01;84.79;102214.00;5094031;28;20128;-72
2021/04/24 01:17:25;;;;;;;15.85;5.90;;;;;;;2.95;84.66;102213.41;5085307;28;20282;-72
2021/04/24 01:19:50;;;;;;;23.83;8.77;;;;;;;2.86;84.54;102218.28;5075979;28;20509;-72
2021/04/24 01:22:15;;;;;;;25.10;6.93;;;;;;;2.84;84.92;102213.06;5093771;28;20042;-72
2021/04/24 01:24:41;;;;;;;20.67;7.60;;;;;;;2.88;84.67;102211.13;5076165;28;20047;-72
2021/04/24 01:27:06;;;;;;;13.53;5.80;;;;;;;2.86;84.52;102198.03;5093608;28;20039;-72
2021/04/24 01:29:33;;;;;;;18.23;5.78;;;;;;;2.95;84.60;102196.72;5075599;28;20126;-72
2021/04/24 01:32:00;;;;;;;22.75;7.00;;;;;;;2.85;84.23;102192.81;5075640;28;20048;-71
2021/04/24 01:34:27;;;;;;;17.55;6.63;;;;;;;2.76;84.71;102199.41;5067605;28;20449;-71
2021/04/24 01:36:57;;;;;;;16.90;6.53;;;;;;;2.70;84.85;102194.44;5093473;28;20058;-72
2021/04/24 01:39:23;;;;;;;12.63;5.35;;;;;;;2.73;84.97;102204.84;5093220;28;20110;-72
2021/04/24 01:41:48;;;;;;;14.13;5.35;;;;;;;2.71;84.66;102198.78;5093142;28;20043;-72
2021/04/24 01:44:14;;;;;;;16.27;5.30;;;;;;;2.73;84.60;102199.56;5093421;28;20028;-72
2021/04/24 01:46:39;;;;;;;16.63;5.63;;;;;;;2.55;84.67;102203.94;5093273;28;20039;-71
2021/04/24 01:49:04;;;;;;;23.27;6.30;;;;;;;2.52;84.50;102202.31;5093169;28;20031;-72
2021/04/24 01:51:30;;;;;;;15.57;5.87;;;;;;;2.56;85.18;102199.56;5093226;28;20036;-72
2021/04/24 01:53:56;;;;;;;15.50;6.50;;;;;;;2.54;84.98;102189.91;5075400;28;20051;-71
2021/04/24 01:56:21;;;;;;;19.80;6.20;;;;;;;2.48;85.20;102195.50;5093022;28;20357;-72
2021/04/24 01:58:47;;;;;;;17.83;6.67;;;;;;;2.24;84.90;102197.53;5092123;28;20043;-72
2021/04/24 02:01:13;;;;;;;17.15;6.32;;;;;;;2.26;85.61;102198.31;5092734;28;20460;-72
2021/04/24 02:03:38;;;;;;;17.83;6.47;;;;;;;2.32;85.82;102184.00;5092911;28;20047;-72
2021/04/24 02:06:05;;;;;;;15.20;6.10;;;;;;;2.36;85.70;102177.63;5075097;28;20100;-72
2021/04/24 02:08:40;;;;;;;18.88;5.35;;;;;;;2.38;85.61;102178.41;5092539;28;20174;-72
2021/04/24 02:11:07;;;;;;;15.52;6.45;;;;;;;2.26;85.88;102181.66;5092874;28;20726;-72
2021/04/24 02:13:37;;;;;;;16.98;6.60;;;;;;;2.34;86.18;102184.75;5092687;28;20085;-72
2021/04/24 02:16:05;;;;;;;16.40;6.32;;;;;;;2.30;85.89;102191.13;5092702;28;20031;-71
2021/04/24 02:18:31;;;;;;;17.52;6.13;;;;;;;2.21;85.74;102194.19;5092372;28;20059;-72
2021/04/24 02:20:56;;;;;;;20.00;5.60;;;;;;;2.23;85.66;102190.56;5092651;28;20040;-72
2021/04/24 02:23:22;;;;;;;18.30;5.90;;;;;;;2.31;86.18;102182.28;5092299;28;20036;-72
2021/04/24 02:25:48;;;;;;;23.15;6.88;;;;;;;2.35;86.30;102178.56;5074795;28;20044;-71
2021/04/24 02:28:14;;;;;;;24.80;7.50;;;;;;;2.26;86.28;102184.28;5074361;28;20043;-72
2021/04/24 02:30:40;;;;;;;19.55;6.45;;;;;;;2.28;86.52;102187.69;5074472;28;20503;-72
2021/04/24 02:33:06;;;;;;;21.73;7.43;;;;;;;2.29;86.62;102187.63;5092404;28;20126;-72
2021/04/24 02:35:47;;;;;;;21.25;7.07;;;;;;;2.27;86.40;102193.88;5074598;28;20080;-73
2021/04/24 02:38:17;;;;;;;17.25;6.68;;;;;;;2.21;86.66;102181.88;5091964;28;20118;-72
2021/04/24 02:40:42;;;;;;;25.02;7.82;;;;;;;2.11;86.81;102185.88;5074474;28;20043;-73
2021/04/24 02:43:08;;;;;;;19.47;6.20;;;;;;;2.08;86.73;102192.16;5074322;28;20433;-73
2021/04/24 02:45:33;;;;;;;23.38;8.23;;;;;;;2.04;86.50;102193.22;5074472;28;20044;-73
2021/04/24 02:47:59;;;;;;;15.83;7.10;;;;;;;2.06;86.61;102183.47;5092036;28;20059;-73
2021/04/24 02:50:24;;;;;;;21.60;8.37;;;;;;;2.08;86.81;102186.00;5074219;28;20338;-73
2021/04/24 02:52:50;;;;;;;19.80;6.75;;;;;;;2.02;86.16;102188.94;5092302;28;20031;-73
2021/04/24 02:55:17;;;;;;;24.17;8.10;;;;;;;1.88;86.24;102189.56;5074333;28;20032;-72
2021/04/24 02:57:43;;;;;;;17.70;6.63;;;;;;;1.85;86.62;102193.22;5057446;28;20036;-73
2021/04/24 03:00:11;;;;;;;18.25;6.43;;;;;;;1.80;87.04;102192.56;5092111;28;20032;-72
2021/04/24 03:02:37;;;;;;;24.40;8.07;;;;;;;1.86;87.01;102186.16;5074205;28;20056;-73
2021/04/24 03:05:08;;;;;;;20.40;7.50;;;;;;;1.94;87.36;102184.00;5091979;28;20070;-72
2021/04/24 03:07:33;;;;;;;19.35;7.20;;;;;;;1.90;87.58;102177.19;5091731;28;20055;-72
2021/04/24 03:09:58;;;;;;;20.73;7.60;;;;;;;1.93;87.14;102178.81;5091792;28;20480;-72
2021/04/24 03:12:24;;;;;;;22.23;7.23;;;;;;;1.90;87.55;102177.19;5074055;28;20468;-72
2021/04/24 03:14:49;;;;;;;27.27;9.47;;;;;;;1.97;87.74;102178.63;5091786;28;20479;-73
2021/04/24 03:17:14;;;;;;;22.50;6.90;;;;;;;2.01;87.50;102182.78;5074057;28;20035;-73
2021/04/24 03:19:40;;;;;;;20.57;6.93;;;;;;;1.95;87.17;102185.72;5091396;28;20063;-73
2021/04/24 03:22:05;;;;;;;23.20;7.43;;;;;;;1.93;86.78;102178.81;5091607;28;20043;-73
2021/04/24 03:24:31;;;;;;;19.00;6.73;;;;;;;1.85;86.94;102174.78;5091690;28;20029;-72
2021/04/24 03:26:56;;;;;;;23.40;7.07;;;;;;;1.79;87.06;102184.72;5073981;28;20343;-73
2021/04/24 03:29:21;;;;;;;13.00;6.10;;;;;;;1.90;87.53;102177.19;5091299;28;20043;-73
2021/04/24 03:31:47;;;;;;;16.97;6.57;;;;;;;1.80;86.92;102181.16;5057198;28;20126;-72
2021/04/24 03:34:12;;;;;;;21.07;6.90;;;;;;;1.82;86.89;102182.78;5073683;28;20476;-73
2021/04/24 03:36:37;;;;;;;26.63;7.40;;;;;;;1.84;86.88;102180.09;5091622;28;20040;-73
2021/04/24 03:39:03;;;;;;;21.67;7.43;;;;;;;1.83;86.97;102178.41;5091255;28;20062;-73
2021/04/24 03:41:29;;;;;;;27.92;7.78;;;;;;;1.85;86.79;102181.78;5057152;28;20040;-73
2021/04/24 03:43:54;;;;;;;25.93;9.00;;;;;;;1.79;86.60;102174.19;5073526;28;20101;-73
2021/04/24 03:46:20;;;;;;;29.07;8.10;;;;;;;1.75;86.53;102194.53;5073739;28;20048;-73
2021/04/24 03:48:45;;;;;;;23.43;8.30;;;;;;;1.73;86.16;102192.91;5091062;28;20115;-73
2021/04/24 03:51:11;;;;;;;16.98;5.88;;;;;;;1.68;86.19;102191.31;5073531;28;20032;-73
2021/04/24 03:53:36;;;;;;;20.47;6.53;;;;;;;1.67;86.25;102189.63;5091311;28;20024;-73
2021/04/24 03:56:01;;;;;;;20.87;7.03;;;;;;;1.69;86.14;102189.56;5091294;28;20461;-73
2021/04/24 03:58:27;;;;;;;16.58;5.75;;;;;;;1.69;86.18;102193.06;5073199;28;20054;-73
2021/04/24 04:00:52;;;;;;;17.90;6.23;;;;;;;1.63;85.86;102195.94;5091261;28;20040;-73
2021/04/24 04:03:18;;;;;;;20.37;6.73;;;;;;;1.56;85.76;102191.88;5091212;28;20024;-73
2021/04/24 04:05:45;;;;;;;17.93;6.13;;;;;;;1.54;86.04;102200.78;5091253;28;20098;-73
2021/04/24 04:08:13;;;;;;;22.20;7.40;;;;;;;1.47;85.79;102208.09;5073309;28;20036;-73
2021/04/24 04:10:40;;;;;;;20.45;6.82;;;;;;;1.47;86.04;102208.09;5073218;28;20028;-72
2021/04/24 04:13:07;;;;;;;17.30;6.85;;;;;;;1.47;86.55;102208.09;5091105;28;20116;-73
2021/04/24 04:15:33;;;;;;;22.27;6.63;;;;;;;1.53;86.18;102213.09;5056627;28;20444;-73
2021/04/24 04:18:04;;;;;;;16.48;7.75;;;;;;;1.44;85.54;102211.72;5073126;28;20464;-72
2021/04/24 04:20:30;;;;;;;24.52;6.72;;;;;;;1.34;85.28;102210.41;5091025;28;20078;-72
2021/04/24 04:22:56;;;;;;;15.40;6.45;;;;;;;1.32;85.73;102206.16;5074742;28;20119;-73
2021/04/24 04:25:22;;;;;;;;;;;;;;;1.34;85.65;102206.94;5077807;28;20040;-72
2021/04/24 04:27:48;;;;;;;19.98;6.68;;;;;;;1.23;85.87;102202.97;5094713;28;19916;-72
2021/04/24 04:30:15;;;;;;;17.90;5.70;;;;;;;1.25;86.18;102208.19;5060562;28;20900;-73
2021/04/24 04:32:41;;;;;;;14.80;5.85;;;;;;;1.24;86.37;102209.09;5076892;28;20036;-73
2021/04/24 04:35:09;;;;;;;19.23;6.17;;;;;;;1.26;85.96;102213.41;5077023;28;20032;-73
2021/04/24 04:37:34;;;;;;;16.23;6.65;;;;;;;1.25;85.82;102214.28;5076567;28;20365;-72
2021/04/24 04:40:00;;;;;;;18.35;6.15;;;;;;;1.26;85.83;102209.88;5076977;28;20405;-73
2021/04/24 04:42:26;;;;;;;19.93;6.57;;;;;;;1.30;85.82;102208.00;5076669;28;20040;-73
2021/04/24 04:44:52;;;;;;;15.13;5.85;;;;;;;1.24;85.86;102206.47;5094557;28;20060;-72
2021/04/24 04:47:17;;;;;;;16.90;5.72;;;;;;;1.34;85.78;102206.94;5094511;28;20040;-73
2021/04/24 04:49:42;;;;;;;24.57;6.57;;;;;;;1.36;86.30;102212.97;5094286;28;20028;-73
2021/04/24 04:52:08;;;;;;;24.60;7.67;;;;;;;1.42;86.70;102210.06;5060037;28;20042;-72
2021/04/24 04:54:33;;;;;;;21.05;6.53;;;;;;;1.63;86.88;102206.47;5094525;28;20475;-72
2021/04/24 04:56:59;;;;;;;23.87;6.20;;;;;;;1.74;86.61;102205.16;5094428;28;20099;-72
2021/04/24 04:59:27;;;;;;;31.33;7.60;;;;;;;1.84;86.42;102202.03;5094142;28;20445;-73
2021/04/24 05:01:54;;;;;;;22.73;7.00;;;;;;;2.00;86.28;102210.06;5094266;28;20032;-73
2021/04/24 05:04:19;;;;;;;25.67;7.00;;;;;;;2.04;86.13;102198.47;5094247;28;20130;-73
2021/04/24 05:06:48;;;;;;;16.77;6.90;;;;;;;2.21;85.69;102207.38;5094221;28;20110;-72
2021/04/24 05:09:13;;;;;;;25.80;7.28;;;;;;;2.29;85.48;102221.91;5093808;28;20452;-73
2021/04/24 05:11:38;;;;;;;19.33;6.50;;;;;;;2.60;85.20;102222.19;5093974;28;20097;-72
2021/04/24 05:14:04;;;;;;;24.97;6.43;;;;;;;3.10;82.91;102229.38;5076142;28;20034;-72
2021/04/24 05:16:29;;;;;;;25.53;6.50;;;;;;;3.30;80.44;102221.31;5094156;28;20036;-72
2021/04/24 05:18:54;;;;;;;20.20;5.50;;;;;;;3.70;79.43;102221.84;5076173;28;20100;-73
2021/04/24 05:21:20;;;;;;;24.83;5.33;;;;;;;3.95;78.14;102216.06;5076324;28;20031;-73
2021/04/24 05:23:45;;;;;;;17.70;5.17;;;;;;;3.70;77.38;102221.84;5059489;28;20082;-73
2021/04/24 05:26:10;;;;;;;18.23;5.50;;;;;;;3.45;78.89;102217.00;5094014;28;20036;-73
2021/04/24 05:28:36;;;;;;;18.63;5.17;;;;;;;3.38;78.67;102219.09;5093662;28;20105;-73
2021/04/24 05:31:01;;;;;;;17.17;5.33;;;;;;;3.32;79.40;102224.69;5093841;28;20044;-72
2021/04/24 05:33:26;;;;;;;15.20;4.87;;;;;;;3.32;79.90;102227.31;5093128;28;20039;-73
2021/04/24 05:35:53;;;;;;;13.77;5.37;;;;;;;3.92;81.22;102220.69;5075191;28;20043;-74
2021/04/24 05:38:18;;;;;;;18.45;4.75;;;;;;;4.24;77.74;102213.63;5093409;28;20953;-74
2021/04/24 05:40:43;;;;;;;22.60;5.73;;;;;;;4.27;77.06;102217.91;5059127;28;20047;-73
2021/04/24 05:43:09;;;;;;;15.03;5.17;;;;;;;4.01;77.80;102222.81;5093487;28;20368;-73
2021/04/24 05:45:34;;;;;;;20.87;6.10;;;;;;;4.18;77.86;102229.81;5075692;28;20036;-73
2021/04/24 05:47:59;;;;;;;22.67;6.33;;;;;;;4.26;77.56;102230.28;5075471;28;20082;-73
2021/04/24 05:50:25;;;;;;;16.63;5.17;;;;;;;4.16;77.21;102237.84;5093504;28;20063;-74
2021/04/24 05:52:50;;;;;;;23.37;6.03;;;;;;;3.89;76.93;102234.06;5075589;28;20036;-73
2021/04/24 05:55:16;;;;;;;30.30;6.27;;;;;;;3.96;77.53;102244.22;5093451;28;20510;-73
2021/04/24 05:57:42;;;;;;;26.30;5.05;;;;;;;3.98;77.42;102244.13;5075009;28;20132;-73
2021/04/24 06:00:14;;;;;;;24.60;6.63;;;;;;;4.09;78.21;102246.19;5093131;28;20044;-73
2021/04/24 06:02:39;;;;;;;14.65;4.88;;;;;;;4.17;77.48;102249.28;5093010;28;20040;-73
2021/04/24 06:05:07;;;;;;;21.00;5.60;;;;;;;4.04;78.17;102249.09;5093195;28;20039;-74
2021/04/24 06:07:33;;;;;;;15.45;5.38;;;;;;;3.86;78.19;102252.72;5074903;28;20613;-74
2021/04/24 06:09:58;;;;;;;24.57;5.27;;;;;;;3.86;78.65;102250.06;5092977;28;20036;-73
2021/04/24 06:12:23;;;;;;;14.27;3.73;;;;;;;3.94;78.43;102251.38;5092831;28;20044;-74
2021/04/24 06:14:49;;;;;;;24.37;6.53;;;;;;;3.99;78.60;102256.41;5092852;28;20055;-73
2021/04/24 06:17:14;;;;;;;20.00;7.03;;;;;;;3.96;77.97;102246.03;5092956;28;20027;-74
2021/04/24 06:19:39;;;;;;;29.90;8.67;;;;;;;4.08;77.92;102250.63;5074976;28;20350;-73
2021/04/24 06:22:05;;;;;;;30.17;6.77;;;;;;;4.21;77.65;102249.03;5074674;28;20107;-73
2021/04/24 06:24:30;;;;;;;21.47;5.63;;;;;;;4.28;77.99;102256.59;5091901;28;20406;-74
2021/04/24 06:26:55;;;;;;;23.53;7.00;;;;;;;4.21;77.41;102246.38;5092706;28;20059;-73
2021/04/24 06:29:21;;;;;;;22.50;6.97;;;;;;;4.35;77.93;102247.38;5092470;28;20145;-74
2021/04/24 06:31:46;;;;;;;20.37;8.30;;;;;;;4.37;76.81;102253.44;5075019;28;20177;-73
2021/04/24 06:34:11;;;;;;;20.93;5.80;;;;;;;4.28;77.66;102251.31;5074971;28;20071;-73
2021/04/24 06:36:37;;;;;;;26.10;6.63;;;;;;;4.41;77.96;102255.84;5092756;28;20090;-74
2021/04/24 06:39:06;;;;;;;23.93;6.80;;;;;;;4.63;76.95;102258.13;5057775;28;20720;-74
2021/04/24 06:41:32;;;;;;;32.15;7.78;;;;;;;4.61;76.99;102254.72;5092632;28;20127;-74
2021/04/24 06:43:57;;;;;;;25.00;5.97;;;;;;;4.90;76.76;102256.66;5057878;28;20063;-74
2021/04/24 06:46:22;;;;;;;20.27;6.53;;;;;;;5.06;76.38;102255.66;5074371;28;20044;-74
2021/04/24 06:48:48;;;;;;;30.00;6.37;;;;;;;5.04;75.02;102256.69;5074316;28;20054;-74
2021/04/24 06:51:13;;;;;;;32.47;7.07;;;;;;;5.04;74.95;102254.91;5092425;28;20123;-73
2021/04/24 06:53:40;;;;;;;35.33;7.83;;;;;;;5.34;74.13;102262.00;5057778;28;20032;-74
2021/04/24 06:56:05;;;;;;;27.05;7.05;;;;;;;5.35;74.74;102260.19;5074545;28;20101;-74
2021/04/24 06:58:31;;;;;;;18.97;7.27;;;;;;;5.47;73.93;102270.03;5057426;28;20039;-74
2021/04/24 07:00:56;;;;;;;20.10;5.90;;;;;;;5.28;74.00;102262.34;5092268;28;20481;-75
2021/04/24 07:03:23;;;;;;;29.97;6.50;;;;;;;5.57;73.73;102259.72;5074232;28;20034;-73
2021/04/24 07:05:49;;;;;;;47.22;7.28;;;;;;;5.59;72.96;102263.16;5057638;28;20051;-74
2021/04/24 07:08:14;;;;;;;14.38;7.55;;;;;;;5.90;73.05;102268.28;5091983;28;20040;-73
2021/04/24 07:10:39;;;;;;;30.63;7.70;;;;;;;5.58;73.02;102261.44;5057471;28;20039;-74
2021/04/24 07:13:05;;;;;;;24.43;8.73;;;;;;;5.90;72.41;102268.28;5074285;28;20353;-74
2021/04/24 07:15:30;;;;;;;16.83;5.73;;;;;;;6.04;70.91;102269.22;5092078;28;20046;-74
2021/04/24 07:17:56;;;;;;;28.73;7.47;;;;;;;6.08;72.27;102268.09;5073817;28;20321;-74
2021/04/24 07:20:21;;;;;;;18.87;6.30;;;;;;;6.22;71.32;102268.09;5057507;28;20035;-74
2021/04/24 07:22:46;;;;;;;16.60;5.93;;;;;;;6.20;69.97;102259.38;5057441;28;20035;-74
2021/04/24 07:25:13;;;;;;;19.67;6.47;;;;;;;6.25;70.34;102256.44;5091835;28;20062;-74
2021/04/24 07:27:38;;;;;;;21.67;6.60;;;;;;;7.00;71.08;102259.53;5057214;28;20028;-73
2021/04/24 07:30:05;;;;;;;28.00;7.37;;;;;;;7.23;67.25;102260.63;5073965;28;20488;-74
2021/04/24 07:32:30;;;;;;;;;;;;;;;7.66;68.12;102256.84;5074042;28;20032;-65
2021/04/24 07:34:56;;;;;;;28.15;7.18;;;;;;;7.63;65.67;102267.66;5073809;28;20234;-74
2021/04/24 07:37:21;;;;;;;14.53;5.47;;;;;;;7.60;67.21;102274.06;5056740;28;20020;-66
2021/04/24 07:39:47;;;;;;;23.27;7.00;;;;;;;7.40;66.55;102270.13;5091298;28;20043;-66
2021/04/24 07:42:13;;;;;;;20.63;7.37;;;;;;;7.32;67.15;102264.47;5091282;28;20075;-65
2021/04/24 07:44:38;;;;;;;23.02;6.65;;;;;;;7.75;65.17;102272.13;5091439;28;20036;-65
2021/04/24 07:47:05;;;;;;;23.00;6.73;;;;;;;7.98;63.35;102262.53;5073637;28;20039;-65
2021/04/24 07:49:30;;;;;;;16.65;6.43;;;;;;;8.60;63.21;102267.00;5091270;28;20173;-65
2021/04/24 07:51:56;;;;;;;15.70;6.30;;;;;;;9.05;60.88;102259.22;5091229;28;20478;-65
2021/04/24 07:54:21;;;;;;;22.23;6.27;;;;;;;9.37;60.46;102267.44;5091391;28;20035;-66
2021/04/24 07:56:48;;;;;;;16.87;5.90;;;;;;;9.54;59.95;102271.47;5090591;28;20059;-66
2021/04/24 07:59:13;;;;;;;;;;;;;;;9.48;58.15;102274.59;5091293;28;20059;-66
2021/04/24 08:01:39;;;;;;;17.35;6.53;;;;;;;10.04;57.17;102274.66;5073545;28;20333;-66
2021/04/24 08:04:06;;;;;;;20.45;6.22;;;;;;;9.88;56.39;102274.16;5091180;28;20036;-65
2021/04/24 08:06:32;;;;;;;16.63;6.68;;;;;;;10.25;55.23;102273.91;5091724;28;20055;-73
2021/04/24 08:08:57;;;;;;;20.45;7.20;;;;;;;10.84;55.70;102273.59;5073169;28;20048;-73
2021/04/24 08:11:23;;;;;;;25.10;7.53;;;;;;;11.07;53.50;102278.81;5090984;28;20028;-73
2021/04/24 08:13:48;;;;;;;24.87;6.47;;;;;;;11.32;52.68;102267.75;5091188;28;20682;-73
2021/04/24 08:16:14;;;;;;;21.23;7.17;;;;;;;11.22;52.51;102268.69;5073281;28;20296;-71
2021/04/24 08:18:39;;;;;;;26.63;7.13;;;;;;;10.44;54.10;102282.19;5056387;28;20043;-73
2021/04/24 08:21:05;;;;;;;23.73;7.23;;;;;;;10.89;54.56;102287.41;5073383;28;20411;-74
2021/04/24 08:23:30;;;;;;;18.77;7.40;;;;;;;11.09;52.69;102293.75;5073138;28;20407;-72
2021/04/24 08:25:56;;;;;;;23.17;6.43;;;;;;;10.70;54.24;102281.84;5073105;28;20115;-72
2021/04/24 08:28:21;;;;;;;14.37;6.63;;;;;;;11.53;51.04;102278.44;5072827;28;20137;-72
2021/04/24 08:30:46;;;;;;;19.13;6.43;;;;;;;11.27;52.61;102291.38;5089751;28;20043;-72
2021/04/24 08:33:12;;;;;;;17.40;7.70;;;;;;;11.59;51.81;102287.78;5089347;28;20119;-73
2021/04/24 08:35:37;;;;;;;20.67;6.67;;;;;;;11.96;50.70;102295.31;5071542;28;20063;-72
2021/04/24 08:38:04;;;;;;;13.90;6.23;;;;;;;11.70;49.55;102292.19;5071265;28;20043;-72
2021/04/24 08:40:29;;;;;;;20.60;7.25;;;;;;;11.65;51.83;102286.41;5071353;28;20032;-72
2021/04/24 08:42:56;;;;;;;18.30;7.55;;;;;;;12.38;51.08;102289.84;5089349;28;20395;-72
2021/04/24 08:45:23;;;;;;;;;;;;;;;11.58;50.06;102288.75;5090792;28;20081;-72
2021/04/24 08:47:51;;;;;;;20.48;6.60;;;;;;;12.32;49.66;102287.72;5090532;28;19920;-72
2021/04/24 08:50:22;;;;;;;24.52;5.38;;;;;;;12.55;47.84;102296.38;5073156;28;20412;-72
2021/04/24 08:52:49;;;;;;;15.02;5.78;;;;;;;12.50;47.79;102293.25;5090531;28;20058;-73
2021/04/24 08:55:24;;;;;;;17.08;7.00;;;;;;;12.48;47.56;102304.13;5090779;28;20122;-72
2021/04/24 08:57:51;;;;;;;20.80;7.93;;;;;;;12.43;47.82;102306.34;5090502;28;20040;-72
2021/04/24 09:00:20;;;;;;;15.95;7.07;;;;;;;12.12;47.96;102303.69;5056316;28;20039;-73
2021/04/24 09:02:47;;;;;;;16.30;7.43;;;;;;;12.65;47.70;102305.28;5090644;28;20610;-65
2021/04/24 09:05:14;;;;;;;16.40;6.32;;;;;;;13.05;46.46;102312.38;5072727;28;20069;-65
2021/04/24 09:07:40;;;;;;;14.90;6.65;;;;;;;12.41;46.85;102314.53;5090274;28;20118;-65
2021/04/24 09:10:09;;;;;;;15.17;7.30;;;;;;;12.88;47.02;102313.94;5094021;28;20173;-65
2021/04/24 09:12:39;;;;;;;13.98;6.45;;;;;;;12.11;49.04;102322.59;5094262;28;20024;-65
2021/04/24 09:15:16;;;;;;;14.48;5.85;;;;;;;12.90;46.70;102314.66;5059496;28;20032;-65
2021/04/24 09:17:50;;;;;;;15.18;5.95;;;;;;;13.73;44.30;102315.03;5076126;28;20032;-65
2021/04/24 09:20:17;;;;;;;18.15;6.90;;;;;;;13.54;44.47;102318.59;5076114;28;20055;-65
2021/04/24 09:22:42;;;;;;;19.67;6.07;;;;;;;13.73;44.44;102317.72;5076138;28;20047;-65
2021/04/24 09:25:08;;;;;;;16.37;6.13;;;;;;;13.45;44.93;102322.97;5059387;28;20035;-65
2021/04/24 09:27:46;;;;;;;15.48;6.97;;;;;;;14.23;44.19;102324.59;5075847;28;20334;-65
2021/04/24 09:30:20;;;;;;;13.43;6.25;;;;;;;13.98;43.46;102318.06;5075869;28;20048;-65
2021/04/24 09:32:47;;;;;;;15.18;5.47;;;;;;;14.74;41.77;102312.47;5076024;28;20480;-64
2021/04/24 09:35:20;;;;;;;14.52;5.93;;;;;;;13.69;43.30;102322.50;5059117;28;20171;-64
2021/04/24 09:38:00;;;;;;;12.63;5.18;;;;;;;14.57;41.06;102319.53;5075708;28;20039;-65
2021/04/24 09:40:26;;;;;;;18.50;5.90;;;;;;;14.51;41.42;102317.41;5093728;28;20048;-65
2021/04/24 09:43:17;;;;;;;14.55;6.43;;;;;;;14.77;40.56;102321.09;5093502;28;20099;-65
2021/04/24 09:45:43;;;;;;;12.95;5.55;;;;;;;14.96;41.02;102321.94;5071857;28;20039;-65
2021/04/24 09:48:19;;;;;;;11.37;6.30;;;;;;;14.30;41.54;102315.78;5075444;28;20359;-65
2021/04/24 09:50:44;;;;;;;11.27;5.18;;;;;;;15.30;38.85;102326.63;5075612;28;20040;-64
2021/04/24 09:53:23;;;;;;;11.57;4.87;;;;;;;15.30;38.65;102313.19;5075639;28;20082;-65
2021/04/24 09:55:51;;;;;;;9.48;4.15;;;;;;;15.43;39.34;102313.63;5093375;28;20354;-65
2021/04/24 09:58:27;;;;;;;18.23;5.68;;;;;;;15.69;37.85;102307.44;5093046;28;20075;-65
2021/04/24 10:00:57;;;;;;;12.98;5.10;;;;;;;16.36;38.08;102304.91;5093314;28;20043;-65
2021/04/24 10:03:34;;;;;;;10.70;4.18;;;;;;;16.48;37.48;102309.00;5093191;28;20043;-65
2021/04/24 10:06:26;;;;;;;10.90;4.13;;;;;;;15.36;37.74;102315.25;5092954;28;20544;-66
2021/04/24 10:09:21;;;;;;;9.95;3.72;;;;;;;15.99;37.59;102316.88;5075087;28;20885;-72
2021/04/24 10:11:53;;;;;;;7.25;3.08;;;;;;;15.96;37.00;102309.13;5075066;28;20169;-73
2021/04/24 10:14:44;;;;;;;6.95;3.35;;;;;;;16.80;32.91;102307.44;5093022;28;20043;-73
2021/04/24 10:17:15;;;;;;;11.15;3.45;;;;;;;17.01;34.39;102302.41;5075106;28;20361;-73
2021/04/24 10:19:42;;;;;;;6.75;2.78;;;;;;;17.12;34.72;102312.03;5074740;28;20107;-72
2021/04/24 10:22:09;;;;;;;8.73;3.17;;;;;;;15.26;35.43;102306.41;5092404;28;20131;-73
2021/04/24 10:24:35;;;;;;;10.43;2.90;;;;;;;15.37;36.24;102301.63;5092776;28;20039;-72
2021/04/24 10:27:01;;;;;;;7.00;2.93;;;;;;;17.26;33.47;102300.56;5074959;28;20044;-72
2021/04/24 10:29:27;;;;;;;9.38;3.42;;;;;;;17.33;34.80;102305.31;5074812;28;20118;-73
2021/04/24 10:31:53;;;;;;;;;;;;;;;16.36;35.41;102311.16;5093348;28;20036;-73
2021/04/24 10:34:19;;;;;;;6.45;2.58;;;;;;;15.48;35.59;102305.94;5058178;28;20490;-72
2021/04/24 10:36:44;;;;;;;13.85;3.60;;;;;;;13.78;39.78;102311.91;5092628;28;20028;-73
2021/04/24 10:39:27;;;;;;;7.90;3.90;;;;;;;14.91;36.92;102313.50;5092155;28;20091;-73
2021/04/24 10:41:59;;;;;;;8.02;2.60;;;;;;;14.24;37.23;102321.78;5092575;28;20032;-72
2021/04/24 10:44:43;;;;;;;7.25;2.70;;;;;;;13.50;38.53;102312.66;5092477;28;20079;-72
2021/04/24 10:47:09;;;;;;;9.77;3.50;;;;;;;14.18;37.17;102317.00;5074721;28;20040;-72
2021/04/24 10:49:34;;;;;;;8.87;3.07;;;;;;;15.20;34.20;102308.72;5092148;28;20042;-72
2021/04/24 10:52:06;;;;;;;7.03;2.83;;;;;;;16.18;32.52;102313.13;5092368;28;20062;-72
2021/04/24 10:54:37;;;;;;;7.90;2.28;;;;;;;16.93;31.06;102312.34;5092358;28;20047;-72
2021/04/24 10:57:41;;;;;;;6.65;2.13;;;;;;;16.84;32.06;102308.81;5074502;28;20047;-72
2021/04/24 11:00:19;;;;;;;3.95;2.00;;;;;;;16.73;30.26;102309.91;5074391;28;20040;-72
2021/04/24 11:02:52;;;;;;;4.22;1.63;;;;;;;16.45;29.42;102309.34;5092089;28;20043;-73
2021/04/24 11:05:30;;;;;;;3.30;1.15;;;;;;;17.21;26.27;102300.25;5074272;28;20044;-72
2021/04/24 11:08:08;;;;;;;3.30;1.70;;;;;;;17.09;25.68;102294.34;5073931;28;20051;-73
2021/04/24 11:10:41;;;;;;;2.45;1.33;;;;;;;17.54;24.70;102304.78;5074054;28;20036;-73
2021/04/24 11:13:10;;;;;;;5.88;1.65;;;;;;;17.64;24.80;102298.16;5074128;28;20024;-73
2021/04/24 11:15:36;;;;;;;2.78;1.30;;;;;;;16.64;23.38;102306.34;5091977;28;20027;-73
2021/04/24 11:18:03;;;;;;;4.30;2.05;;;;;;;14.97;26.57;102311.03;5091680;28;20449;-72
2021/04/24 11:20:44;;;;;;;3.88;1.00;;;;;;;17.07;26.41;102306.31;5074135;28;20047;-73
2021/04/24 11:23:45;;;;;;;4.28;1.35;;;;;;;16.10;27.05;102318.47;5074003;28;20038;-73
2021/04/24 11:26:36;;;;;;;3.22;1.73;;;;;;;15.15;27.55;102320.97;5009888;28;20045;-73